Airfield :
LOGIN :

Register | Disclaimer

   EN    FR    IT 

 










Legend :    VFR   Marginal VFR   IFR   Intensive IFR   Very Intensive IFR
Visi :
Ceiling :
>= 8 km
>= 3000ft
5 to 8 km
1000 to 3000 ft
1500m to 5 km
500 to 1000 ft
800 to 1500m
200 to 500 ft
< 800m
< 200 ft
Symbols :   Thunderstorms  Fog  Heavy snow  Heavy precipitations  Wind > 20 kt
SIGMETs :     Misc.  Thunderstorms  Icing  Turbulence  Mountain Waves  Volcanic Ashes







- Airport Elevation : 479 ft
- IATA code : DOL
- Download approach charts


LFRG - Deauville

CURRENT METAR :
  • 260900Z AUTO 29015KT 260V320 9999 BKN019 11/06 Q1021 TEMPO SHRA BKN013

EXPIRED METARs :
  • 260830Z AUTO 29013KT 260V320 9999 BKN017 11/06 Q1021 TEMPO SHRA BKN013
  • 260800Z AUTO 29012KT 9999 BKN017 OVC210 10/06 Q1021 TEMPO BKN012
  • 260730Z AUTO 29013KT 250V310 9999 BKN014 BKN210 10/06 Q1021 BECMG BKN020
  • 260700Z AUTO 27011KT 240V300 9999 SCT013 09/06 Q1021 NOSIG
  • 260630Z AUTO 25007KT 220V280 9999 BKN014 BKN019 BKN033 08/06 Q1020 TEMPO BKN015

TAF TAF LFRG
Valid from the 26 at 09:00 until the 26 at 18:00 UTC


260800Z 2609/2618 27012KT 9999 BKN020
PROB30
TEMPO 2609/2612 BKN013
PROB30
TEMPO 2609/2616 5000 SHRA
BECMG 2616/2618 32005KT
ATIS : +33 2 31 65 65 36
No reported NOTAMs for that airfield.



MET'MAP, your aeronautical weather chart ! - Copyright ORBIFLY December 2007 - Disclaimer

ORBIFLY MET'MAP TEAM :

Programming & Development : Alexandra Zaïnal
Concept & Development : Baudouin d'Aumeries
Co-Development & Prog : Marc-Olivier Méhu
Technical & hardware support : Manuel Goepfert

Contact : metmap@orbifly.com




SOURCES & CREDITS :

   NOAA